map of BLJ home
BLJ - Airport
Location
City:  Batna, Batna, Algeria
Name:Mostepha Ben Boulaid Airport
ICAO:DABT
IATA:BLJ

Details
Type:Airport (Aerodrome, Airfield)
Use:Public/Civil, International (customs port of entry)
Latitude:3545'33"N (35.759167)
Longitude:619'21"E (6.322500)
Elevation:2697 ft (822 m)
Variation:1.91E (WMM2015v2 magnetic declination)
0.13 annual change
Runways:1
Longest:9843 × 148 ft (3000 × 45 m)

Time
Time Zone:UTC+1
Local Time:

Weather
METAR:DABT 041400Z 32029KT 9999 FEW006 BKN020 06/M02 Q1018
TAF:DABT 041100Z 0412/0512 30015G25KT 6000 SCT013TCU BKN023
TEMPO 0412/0424 2000 -SN OVC008 PROB30
TEMPO 0414/0424 30020G40KT 3000 -TSRA SCT020CB

Related Locations
Nearby:
Farthest:GIS: 11939 mi / 19214 km
Gisborne, GIS, NZ

Find:

   beyond  
but within

Other Information
Maps:
NOTAMs:
Links:
Sources:

  
  • flag of Algeria
  

Sectional Chart

Flight Planning
at skyvector.com

Satellite Image

Google Maps Satellite view

 

Copyright © 2004-2019 Karl L. Swartz. All rights reserved.
The Great Circle Mapper name and logo are trademarks of the Great Circle Mapper.
All other trademarks mentioned herein belong to their respective owners.
Please see credits for attibutions and further copyright information.

  Follow gcmap on Facebook Follow gcmap on Twitter GCmap on LinkedIn

hCard Microformat

Geo Microformat